Time;durP1;ratioP1;P1;durP2;ratioP2;P2;SDS_P1;SDS_P2;PMS_P1;PMS_P2;Temp;Humidity;BMP_temperature;BMP_pressure;BME280_temperature;BME280_humidity;BME280_pressure;Samples;Min_cycle;Max_cycle;Signal;HPM_P1;HPM_P2
2022/10/21 00:00:15;;;;;;;7.30;2.03;;;17.20;79.40;;;;;;4980317;28;20051;-78
2022/10/21 00:02:40;;;;;;;7.22;2.28;;;17.20;79.30;;;;;;4979707;28;20030;-79
2022/10/21 00:05:06;;;;;;;4.28;2.58;;;17.20;79.50;;;;;;4978437;28;20030;-79
2022/10/21 00:07:33;;;;;;;3.53;1.75;;;17.20;79.30;;;;;;4994451;28;20023;-78
2022/10/21 00:09:58;;;;;;;5.22;2.33;;;17.20;79.40;;;;;;4979860;28;20037;-79
2022/10/21 00:12:26;;;;;;;5.63;1.63;;;17.20;79.40;;;;;;4994607;28;20035;-79
2022/10/21 00:14:52;;;;;;;5.35;2.60;;;17.20;79.30;;;;;;4979417;28;20078;-79
2022/10/21 00:17:17;;;;;;;8.45;3.33;;;17.20;79.30;;;;;;5009666;28;20489;-79
2022/10/21 00:19:43;;;;;;;8.18;2.05;;;17.20;79.50;;;;;;4999083;28;20039;-79
2022/10/21 00:22:09;;;;;;;6.25;1.85;;;17.20;79.30;;;;;;5002193;28;20074;-79
2022/10/21 00:24:34;;;;;;;5.55;2.13;;;17.20;79.30;;;;;;5018279;28;20057;-79
2022/10/21 00:27:01;;;;;;;3.88;1.90;;;17.20;79.20;;;;;;4999265;28;20397;-79
2022/10/21 00:29:28;;;;;;;5.30;2.15;;;17.30;79.30;;;;;;4998867;28;20023;-78
2022/10/21 00:31:53;;;;;;;10.90;2.05;;;17.30;79.20;;;;;;4998460;28;20484;-79
2022/10/21 00:34:20;;;;;;;6.18;2.20;;;17.20;79.30;;;;;;4998208;28;20038;-78
2022/10/21 00:36:45;;;;;;;4.80;1.98;;;17.30;79.20;;;;;;4997323;28;20030;-79
2022/10/21 00:39:11;;;;;;;8.32;2.47;;;17.30;79.10;;;;;;4998549;28;20030;-79
2022/10/21 00:41:36;;;;;;;11.30;2.10;;;17.30;79.10;;;;;;4997772;28;20126;-78
2022/10/21 00:44:12;;;;;;;6.72;2.20;;;17.30;79.00;;;;;;5013141;28;20077;-79
2022/10/21 00:46:49;;;;;;;4.63;2.08;;;17.30;79.00;;;;;;4998440;28;20429;-79
2022/10/21 00:49:57;;;;;;;6.43;2.22;;;17.20;79.10;;;;;;4995657;28;20035;-79
2022/10/21 00:52:23;;;;;;;5.38;2.00;;;17.20;79.10;;;;;;4992911;28;20661;-78
2022/10/21 00:54:52;;;;;;;7.13;1.98;;;17.20;79.20;;;;;;4978761;28;20144;-78
2022/10/21 00:57:19;;;;;;;5.57;1.80;;;17.20;79.20;;;;;;4987307;28;20160;-78
2022/10/21 00:59:50;;;;;;;6.63;1.77;;;17.20;79.40;;;;;;4992006;28;20023;-78
2022/10/21 01:02:18;;;;;;;5.13;1.90;;;17.10;79.60;;;;;;4978934;28;20617;-78
2022/10/21 01:04:44;;;;;;;7.22;2.45;;;17.20;79.50;;;;;;4978751;28;20033;-78
2022/10/21 01:07:11;;;;;;;6.07;1.98;;;17.20;79.50;;;;;;4977285;28;20039;-78
2022/10/21 01:09:37;;;;;;;9.50;2.08;;;17.10;79.60;;;;;;4990138;28;20037;-78
2022/10/21 01:12:07;;;;;;;9.10;1.80;;;17.10;79.60;;;;;;4997374;28;20022;-78
2022/10/21 01:14:44;;;;;;;6.95;2.60;;;17.10;79.60;;;;;;4997832;28;20074;-78
2022/10/21 01:17:47;;;;;;;5.45;1.60;;;17.10;79.80;;;;;;4997273;28;20042;-79
2022/10/21 01:20:19;;;;;;;3.45;1.17;;;17.10;79.80;;;;;;4997189;28;20034;-78
2022/10/21 01:23:12;;;;;;;6.63;1.95;;;17.20;80.10;;;;;;5006274;28;20468;-78
2022/10/21 01:25:56;;;;;;;6.22;1.35;;;17.20;80.10;;;;;;5013105;28;20018;-79
2022/10/21 01:28:59;;;;;;;9.23;2.08;;;17.20;80.10;;;;;;5017261;28;20057;-78
2022/10/21 01:31:49;;;;;;;11.18;2.55;;;17.20;80.10;;;;;;5008586;28;20117;-78
2022/10/21 01:34:20;;;;;;;7.28;1.95;;;17.20;80.20;;;;;;5012499;28;20034;-78
2022/10/21 01:37:14;;;;;;;12.23;3.05;;;17.20;80.30;;;;;;4996409;28;20386;-78
2022/10/21 01:39:54;;;;;;;8.90;2.00;;;17.20;80.30;;;;;;4991982;28;20124;-78
2022/10/21 01:42:23;;;;;;;;;;;17.20;80.20;;;;;;4978384;28;20050;-78
2022/10/21 01:45:16;;;;;;;7.25;1.73;;;17.20;80.20;;;;;;4978059;28;19997;-78
2022/10/21 01:47:50;;;;;;;7.82;1.55;;;17.20;80.20;;;;;;4977348;28;20498;-78
2022/10/21 01:50:26;;;;;;;7.50;1.75;;;17.20;80.20;;;;;;4984447;28;20034;-78
2022/10/21 01:52:56;;;;;;;9.90;1.95;;;17.20;80.10;;;;;;5012207;28;20049;-78
2022/10/21 01:55:26;;;;;;;5.95;2.30;;;17.20;80.10;;;;;;4996350;28;20034;-78
2022/10/21 01:57:54;;;;;;;;;;;17.20;80.10;;;;;;4997499;28;20034;-78
2022/10/21 02:00:20;;;;;;;5.30;1.67;;;17.20;80.00;;;;;;4996527;28;19917;-78
2022/10/21 02:02:48;;;;;;;6.72;1.85;;;17.20;80.00;;;;;;4997164;28;20042;-79
2022/10/21 02:05:24;;;;;;;8.80;2.20;;;17.20;80.20;;;;;;4996454;28;20030;-78
2022/10/21 02:07:50;;;;;;;6.22;1.40;;;17.10;80.30;;;;;;4996863;28;20081;-79
2022/10/21 02:10:16;;;;;;;4.82;1.45;;;17.20;80.20;;;;;;4996836;28;20034;-78
2022/10/21 02:12:44;;;;;;;4.95;1.75;;;17.10;80.30;;;;;;4978425;28;20379;-78
2022/10/21 02:15:14;;;;;;;4.68;1.90;;;17.10;80.50;;;;;;4975984;28;20039;-79
2022/10/21 02:17:43;;;;;;;7.97;1.88;;;17.10;80.50;;;;;;4995260;28;20034;-78
2022/10/21 02:20:11;;;;;;;2.53;1.30;;;17.00;80.70;;;;;;4996548;28;20120;-78
2022/10/21 02:22:38;;;;;;;6.25;1.88;;;17.00;80.60;;;;;;5004087;28;20033;-79
2022/10/21 02:25:13;;;;;;;8.13;2.28;;;17.00;80.60;;;;;;4999526;28;20498;-78
2022/10/21 02:27:38;;;;;;;6.22;2.03;;;17.00;80.90;;;;;;4977169;28;20019;-78
2022/10/21 02:30:05;;;;;;;6.43;1.67;;;17.00;81.00;;;;;;4976200;28;20113;-79
2022/10/21 02:32:34;;;;;;;5.63;1.23;;;17.00;80.90;;;;;;4990779;28;20497;-78
2022/10/21 02:35:37;;;;;;;6.47;1.67;;;17.00;80.90;;;;;;4995857;28;20038;-78
2022/10/21 02:38:39;;;;;;;7.05;1.70;;;17.00;81.10;;;;;;5011157;28;20026;-78
2022/10/21 02:41:09;;;;;;;3.33;1.50;;;17.00;81.40;;;;;;5011500;28;20037;-78
2022/10/21 02:43:50;;;;;;;7.63;1.80;;;16.90;81.40;;;;;;4996006;28;20436;-79
2022/10/21 02:46:15;;;;;;;6.93;1.48;;;16.90;81.40;;;;;;4996077;28;20170;-78
2022/10/21 02:48:45;;;;;;;12.00;2.00;;;17.00;81.40;;;;;;4995107;28;20034;-79
2022/10/21 02:51:11;;;;;;;8.85;1.90;;;16.90;81.40;;;;;;4995096;28;20026;-79
2022/10/21 02:53:37;;;;;;;4.40;1.70;;;16.90;81.60;;;;;;4995957;28;20126;-78
2022/10/21 02:56:03;;;;;;;6.10;1.33;;;16.90;81.80;;;;;;4995542;28;20042;-79
2022/10/21 02:58:28;;;;;;;8.00;2.15;;;16.90;81.90;;;;;;5010991;28;20125;-78
2022/10/21 03:00:54;;;;;;;8.82;1.65;;;16.90;81.70;;;;;;4995443;28;20026;-78
2022/10/21 03:03:20;;;;;;;8.02;2.22;;;16.90;81.60;;;;;;4995988;28;20053;-78
2022/10/21 03:05:46;;;;;;;10.82;2.47;;;16.90;81.70;;;;;;4995585;28;20582;-78
2022/10/21 03:08:11;;;;;;;4.97;1.50;;;16.90;81.60;;;;;;5010280;28;20095;-79
2022/10/21 03:10:37;;;;;;;10.95;1.95;;;16.80;81.70;;;;;;4995365;28;20031;-79
2022/10/21 03:13:03;;;;;;;5.30;1.75;;;16.90;81.70;;;;;;4995826;28;20034;-79
2022/10/21 03:15:29;;;;;;;8.35;2.08;;;16.80;81.60;;;;;;5010623;28;20053;-79
2022/10/21 03:17:54;;;;;;;9.65;1.70;;;16.80;81.50;;;;;;4995213;28;20026;-79
2022/10/21 03:20:20;;;;;;;4.45;1.58;;;16.80;81.50;;;;;;4995711;28;20389;-79
2022/10/21 03:22:45;;;;;;;8.63;1.75;;;16.80;81.60;;;;;;5004224;28;20484;-79
2022/10/21 03:25:12;;;;;;;3.85;1.20;;;16.80;81.60;;;;;;5008425;28;20075;-78
2022/10/21 03:27:38;;;;;;;6.63;1.88;;;16.80;81.50;;;;;;4995383;28;20027;-78
2022/10/21 03:30:05;;;;;;;5.45;1.70;;;16.80;81.30;;;;;;4995574;28;20030;-79
2022/10/21 03:32:30;;;;;;;5.70;1.20;;;16.80;81.40;;;;;;4995450;28;20109;-78
2022/10/21 03:34:56;;;;;;;6.15;1.38;;;16.80;81.30;;;;;;4995071;28;20116;-78
2022/10/21 03:37:24;;;;;;;3.55;1.67;;;16.80;81.20;;;;;;4993771;28;20026;-78
2022/10/21 03:39:49;;;;;;;4.53;1.27;;;16.80;81.20;;;;;;4995548;28;20171;-79
2022/10/21 03:42:15;;;;;;;5.18;1.48;;;16.80;81.10;;;;;;4995588;28;20033;-78
2022/10/21 03:44:40;;;;;;;5.13;1.65;;;16.80;81.20;;;;;;4994999;28;20034;-78
2022/10/21 03:47:06;;;;;;;5.38;1.45;;;16.80;81.10;;;;;;4995076;28;20045;-79
2022/10/21 03:49:32;;;;;;;6.82;1.60;;;16.70;80.80;;;;;;4995535;28;20030;-78
2022/10/21 03:51:58;;;;;;;5.60;1.88;;;16.70;81.10;;;;;;5005116;28;20037;-78
2022/10/21 03:54:23;;;;;;;10.52;1.75;;;16.70;81.00;;;;;;4974622;28;20031;-78
2022/10/21 03:56:49;;;;;;;5.47;1.63;;;16.70;80.90;;;;;;4975950;28;20030;-78
2022/10/21 03:59:15;;;;;;;2.08;1.13;;;16.70;80.80;;;;;;4975934;28;20482;-78
2022/10/21 04:01:40;;;;;;;4.57;0.93;;;16.70;80.80;;;;;;4986201;28;20042;-79
2022/10/21 04:04:06;;;;;;;9.32;1.70;;;16.70;80.70;;;;;;4994864;28;20031;-79
2022/10/21 04:06:32;;;;;;;6.72;1.20;;;16.70;80.60;;;;;;4994792;28;20027;-79
2022/10/21 04:08:57;;;;;;;12.40;1.77;;;16.70;80.50;;;;;;4995601;28;20029;-79
2022/10/21 04:11:23;;;;;;;6.20;1.42;;;16.70;80.50;;;;;;4995454;28;20038;-78
2022/10/21 04:13:49;;;;;;;8.68;1.83;;;16.70;80.60;;;;;;4995239;28;20100;-79
2022/10/21 04:16:18;;;;;;;6.55;1.40;;;16.70;80.50;;;;;;4991698;28;20933;-79
2022/10/21 04:18:43;;;;;;;6.72;0.95;;;16.70;80.50;;;;;;4974489;28;20030;-79
2022/10/21 04:21:10;;;;;;;3.28;1.38;;;16.70;80.40;;;;;;4989579;28;20034;-79
2022/10/21 04:23:35;;;;;;;4.85;1.23;;;16.70;80.20;;;;;;5010681;28;20029;-79
2022/10/21 04:26:02;;;;;;;7.90;1.58;;;16.70;80.40;;;;;;5014474;28;20026;-79
2022/10/21 04:28:30;;;;;;;6.68;1.25;;;16.70;80.20;;;;;;4993293;28;20034;-79
2022/10/21 04:30:56;;;;;;;7.50;1.50;;;16.80;80.10;;;;;;4995003;28;20039;-78
2022/10/21 04:33:21;;;;;;;5.45;2.05;;;16.70;80.00;;;;;;4995217;28;20108;-78
2022/10/21 04:35:47;;;;;;;4.90;1.40;;;16.70;80.00;;;;;;4977508;28;20117;-78
2022/10/21 04:38:12;;;;;;;10.07;1.55;;;16.70;79.90;;;;;;4979163;28;20114;-79
2022/10/21 04:40:38;;;;;;;10.63;1.10;;;16.70;79.90;;;;;;4979080;28;20049;-79
2022/10/21 04:43:04;;;;;;;8.30;1.30;;;16.70;79.70;;;;;;4979138;28;20018;-79
2022/10/21 04:45:30;;;;;;;4.10;1.00;;;16.70;79.50;;;;;;4979096;28;20051;-80
2022/10/21 04:47:55;;;;;;;11.05;1.55;;;16.70;79.50;;;;;;4978965;28;20033;-78
2022/10/21 04:50:21;;;;;;;4.93;1.20;;;16.60;79.60;;;;;;4997322;28;20033;-78
2022/10/21 04:52:46;;;;;;;6.65;1.33;;;16.60;79.60;;;;;;4998403;28;20037;-79
2022/10/21 04:55:12;;;;;;;4.43;0.90;;;16.60;79.50;;;;;;4998149;28;20030;-77
2022/10/21 04:57:39;;;;;;;9.73;1.25;;;16.60;79.70;;;;;;4992743;28;20030;-78
2022/10/21 05:00:06;;;;;;;7.43;1.58;;;16.60;79.60;;;;;;4996476;28;20022;-78
2022/10/21 05:02:31;;;;;;;8.80;1.30;;;16.60;79.70;;;;;;4989412;28;20045;-78
2022/10/21 05:04:57;;;;;;;6.05;1.10;;;16.60;79.60;;;;;;4989390;28;20027;-79
2022/10/21 05:07:22;;;;;;;5.93;1.40;;;16.60;79.60;;;;;;4989681;28;20030;-80
2022/10/21 05:09:48;;;;;;;12.95;1.38;;;16.60;79.70;;;;;;4998195;28;20045;-79
2022/10/21 05:12:14;;;;;;;2.97;0.85;;;16.60;79.70;;;;;;4995332;28;20042;-78
2022/10/21 05:14:39;;;;;;;6.72;1.38;;;16.60;79.80;;;;;;4991964;28;20065;-81
2022/10/21 05:17:05;;;;;;;7.32;1.67;;;16.60;79.90;;;;;;4980326;28;20433;-80
2022/10/21 05:19:40;;;;;;;4.72;1.20;;;16.60;80.00;;;;;;4992025;28;20767;-81
2022/10/21 05:22:06;;;;;;;5.47;1.30;;;16.60;80.10;;;;;;4996699;28;20120;-79
2022/10/21 05:24:31;;;;;;;7.68;1.58;;;16.60;80.10;;;;;;4991425;28;20041;-81
2022/10/21 05:26:57;;;;;;;4.60;0.80;;;16.50;80.10;;;;;;4995369;28;20022;-79
2022/10/21 05:29:22;;;;;;;7.32;1.17;;;16.50;80.20;;;;;;4996639;28;20882;-79
2022/10/21 05:31:48;;;;;;;9.07;1.75;;;16.50;80.40;;;;;;4997371;28;20520;-79
2022/10/21 05:34:14;;;;;;;8.85;1.38;;;16.50;80.50;;;;;;4997311;28;20061;-79
2022/10/21 05:36:46;;;;;;;5.57;1.20;;;16.50;80.60;;;;;;4995906;28;20105;-79
2022/10/21 05:39:12;;;;;;;6.88;1.33;;;16.50;80.60;;;;;;4996003;28;20018;-79
2022/10/21 05:41:38;;;;;;;5.88;1.20;;;16.50;80.70;;;;;;4996365;28;20041;-79
2022/10/21 05:44:03;;;;;;;7.90;1.13;;;16.40;80.80;;;;;;4996305;28;20027;-79
2022/10/21 05:46:29;;;;;;;5.43;1.33;;;16.50;80.90;;;;;;4994647;28;20436;-79
2022/10/21 05:48:55;;;;;;;5.18;1.15;;;16.40;80.90;;;;;;5010114;28;20124;-79
2022/10/21 05:51:25;;;;;;;8.23;1.48;;;16.40;80.90;;;;;;4995900;28;20101;-80
2022/10/21 05:53:54;;;;;;;8.43;1.48;;;16.40;81.00;;;;;;4996167;28;20037;-79
2022/10/21 05:56:19;;;;;;;6.00;1.02;;;16.30;81.20;;;;;;4996740;28;20061;-79
2022/10/21 05:58:45;;;;;;;5.05;1.10;;;16.30;81.10;;;;;;5010532;28;20050;-79
2022/10/21 06:01:10;;;;;;;7.43;1.83;;;16.30;81.10;;;;;;4995002;28;20030;-79
2022/10/21 06:03:36;;;;;;;5.00;1.17;;;16.40;81.00;;;;;;4985535;28;20042;-79
2022/10/21 06:06:04;;;;;;;4.05;1.02;;;16.30;81.30;;;;;;4994803;28;20033;-79
2022/10/21 06:08:32;;;;;;;6.32;1.50;;;16.30;81.30;;;;;;4996275;28;20363;-79
2022/10/21 06:11:13;;;;;;;5.30;1.30;;;16.30;81.20;;;;;;4990041;28;20022;-78
2022/10/21 06:13:39;;;;;;;3.88;1.30;;;16.30;81.20;;;;;;4988182;28;20117;-78
2022/10/21 06:16:06;;;;;;;5.40;1.35;;;16.30;81.20;;;;;;4995873;28;20030;-78
2022/10/21 06:18:32;;;;;;;12.05;2.00;;;16.30;81.10;;;;;;4994073;28;20489;-78
2022/10/21 06:20:58;;;;;;;7.47;1.05;;;16.30;81.30;;;;;;4990337;28;20030;-80
2022/10/21 06:23:23;;;;;;;3.92;1.20;;;16.30;81.20;;;;;;5004076;28;20029;-78
2022/10/21 06:25:56;;;;;;;4.75;1.10;;;16.30;81.30;;;;;;4996298;28;20050;-78
2022/10/21 06:28:26;;;;;;;4.68;1.27;;;16.30;81.30;;;;;;4993962;28;20062;-78
2022/10/21 06:30:52;;;;;;;7.15;1.38;;;16.30;81.10;;;;;;4992770;28;20030;-78
2022/10/21 06:33:18;;;;;;;4.43;1.42;;;16.30;81.10;;;;;;4995627;28;20097;-78
2022/10/21 06:35:43;;;;;;;15.77;1.80;;;16.30;81.10;;;;;;4996172;28;20085;-78
2022/10/21 06:38:09;;;;;;;6.53;1.50;;;16.30;80.90;;;;;;4994969;28;20045;-79
2022/10/21 06:40:35;;;;;;;10.38;1.58;;;16.20;81.00;;;;;;4995850;28;20027;-79
2022/10/21 06:43:01;;;;;;;6.38;1.50;;;16.30;81.00;;;;;;4995933;28;20022;-79
2022/10/21 06:45:27;;;;;;;12.18;2.47;;;16.30;81.00;;;;;;5007251;28;20030;-78
2022/10/21 06:47:55;;;;;;;5.63;1.65;;;16.30;81.00;;;;;;4995824;28;20026;-79
2022/10/21 06:50:21;;;;;;;8.98;1.45;;;16.20;80.90;;;;;;4996963;28;20030;-78
2022/10/21 06:52:50;;;;;;;10.15;1.88;;;16.30;81.00;;;;;;4995570;28;20026;-79
2022/10/21 06:55:17;;;;;;;10.73;1.50;;;16.30;80.90;;;;;;4995031;28;20049;-79
2022/10/21 06:57:42;;;;;;;13.68;1.80;;;16.30;80.80;;;;;;4995438;28;20030;-78
2022/10/21 07:00:09;;;;;;;11.30;2.55;;;16.30;80.70;;;;;;4975988;28;20053;-79
2022/10/21 07:02:35;;;;;;;6.80;1.55;;;16.30;80.50;;;;;;4985134;28;20109;-79
2022/10/21 07:05:00;;;;;;;11.23;2.13;;;16.40;80.30;;;;;;4995679;28;20057;-78
2022/10/21 07:07:26;;;;;;;11.38;1.60;;;16.40;80.30;;;;;;4995370;28;20058;-79
2022/10/21 07:09:56;;;;;;;9.45;1.60;;;16.40;80.00;;;;;;4994983;28;20061;-79
2022/10/21 07:12:22;;;;;;;11.70;1.73;;;16.40;80.10;;;;;;4995885;28;20030;-78
2022/10/21 07:14:48;;;;;;;12.88;2.00;;;16.50;80.10;;;;;;5010739;28;20489;-79
2022/10/21 07:17:14;;;;;;;9.63;1.67;;;16.60;79.90;;;;;;4995493;28;20027;-79
2022/10/21 07:19:40;;;;;;;10.20;1.92;;;16.50;79.60;;;;;;4996127;28;20026;-79
2022/10/21 07:22:06;;;;;;;6.22;1.45;;;16.60;79.50;;;;;;4993645;28;20053;-78
2022/10/21 07:24:32;;;;;;;11.10;2.42;;;16.60;79.60;;;;;;4995936;28;20081;-79
2022/10/21 07:26:57;;;;;;;13.65;1.88;;;16.70;79.60;;;;;;4994245;28;20094;-79
2022/10/21 07:29:23;;;;;;;13.40;1.45;;;16.80;79.40;;;;;;4995851;28;20097;-79
2022/10/21 07:31:49;;;;;;;8.73;2.20;;;16.80;79.30;;;;;;4989733;28;20033;-79
2022/10/21 07:34:15;;;;;;;10.45;1.85;;;16.80;79.20;;;;;;4985515;28;20086;-79
2022/10/21 07:36:46;;;;;;;11.73;2.60;;;16.90;79.20;;;;;;4991092;28;20714;-78
2022/10/21 07:39:14;;;;;;;9.55;1.65;;;16.90;79.10;;;;;;4994286;28;20022;-80
2022/10/21 07:41:43;;;;;;;7.95;1.90;;;17.00;78.80;;;;;;4995343;28;20042;-79
2022/10/21 07:44:09;;;;;;;14.77;3.53;;;17.20;78.50;;;;;;4992664;28;20064;-79
2022/10/21 07:46:37;;;;;;;8.50;2.17;;;17.30;78.40;;;;;;5000279;28;20405;-79
2022/10/21 07:49:03;;;;;;;16.13;2.28;;;17.30;78.30;;;;;;4995713;28;20124;-79
2022/10/21 07:51:28;;;;;;;16.90;3.20;;;17.40;78.10;;;;;;4995446;28;20038;-79
2022/10/21 07:53:55;;;;;;;15.85;3.15;;;17.40;77.90;;;;;;5010684;28;20027;-80
2022/10/21 07:56:27;;;;;;;10.63;2.38;;;17.40;77.80;;;;;;4995370;28;20109;-79
2022/10/21 07:58:53;;;;;;;16.75;2.33;;;17.40;77.90;;;;;;4994525;28;20121;-79
2022/10/21 08:01:19;;;;;;;12.02;2.92;;;17.30;77.80;;;;;;4992981;28;20069;-79
2022/10/21 08:03:47;;;;;;;10.70;1.63;;;17.30;78.00;;;;;;4995628;28;20539;-79
2022/10/21 08:06:14;;;;;;;12.68;1.98;;;17.30;78.00;;;;;;4993835;28;20022;-81
2022/10/21 08:08:40;;;;;;;11.07;2.42;;;17.30;77.90;;;;;;4994293;28;20799;-78
2022/10/21 08:11:07;;;;;;;6.97;1.73;;;17.30;77.70;;;;;;4997295;28;20030;-80
2022/10/21 08:13:33;;;;;;;15.70;2.90;;;17.40;77.80;;;;;;5014381;28;20034;-78
2022/10/21 08:16:00;;;;;;;15.98;2.42;;;17.40;77.50;;;;;;4998072;28;20046;-79
2022/10/21 08:18:27;;;;;;;12.27;2.53;;;17.50;77.70;;;;;;4997102;28;20062;-78
2022/10/21 08:20:53;;;;;;;16.65;2.35;;;17.60;77.60;;;;;;4997420;28;20022;-78
2022/10/21 08:23:21;;;;;;;14.82;2.25;;;17.70;77.40;;;;;;5002768;28;20035;-79
2022/10/21 08:25:52;;;;;;;10.52;2.03;;;17.70;77.40;;;;;;4995282;28;20022;-79
2022/10/21 08:28:19;;;;;;;18.23;2.10;;;17.70;77.40;;;;;;4998860;28;20023;-79
2022/10/21 08:30:45;;;;;;;10.55;2.05;;;17.60;77.50;;;;;;4998221;28;20037;-79
2022/10/21 08:33:12;;;;;;;8.50;1.95;;;17.60;77.50;;;;;;4998144;28;20034;-78
2022/10/21 08:35:38;;;;;;;8.27;1.90;;;17.50;77.60;;;;;;4998919;28;20094;-78
2022/10/21 08:38:05;;;;;;;13.35;2.25;;;17.30;77.80;;;;;;4998829;28;20026;-79
2022/10/21 08:40:37;;;;;;;13.38;2.42;;;17.30;77.90;;;;;;4998442;28;20403;-79
2022/10/21 08:43:18;;;;;;;13.27;2.33;;;17.40;78.20;;;;;;4998651;28;20027;-79
2022/10/21 08:45:50;;;;;;;15.50;3.17;;;17.50;78.00;;;;;;4976130;28;20030;-78
2022/10/21 08:48:22;;;;;;;15.02;2.85;;;17.60;77.90;;;;;;4986285;28;20077;-79
2022/10/21 08:50:50;;;;;;;14.45;2.85;;;17.70;77.70;;;;;;4980919;28;20033;-78
2022/10/21 08:53:16;;;;;;;13.43;2.10;;;17.90;77.10;;;;;;4997933;28;20030;-79
2022/10/21 08:55:43;;;;;;;20.75;2.40;;;18.00;76.80;;;;;;5006736;28;20038;-78
2022/10/21 08:58:21;;;;;;;11.95;2.17;;;18.10;76.50;;;;;;4992972;28;21709;-78
2022/10/21 09:00:55;;;;;;;14.13;3.00;;;18.20;75.80;;;;;;4997266;28;20509;-79
2022/10/21 09:04:02;;;;;;;15.40;2.47;;;18.20;75.90;;;;;;4997368;28;20019;-79
2022/10/21 09:06:46;;;;;;;13.32;2.05;;;18.30;75.10;;;;;;4985174;28;20027;-79
2022/10/21 09:09:26;;;;;;;16.42;2.40;;;18.40;74.70;;;;;;4998255;28;20459;-80
2022/10/21 09:12:11;;;;;;;15.25;1.77;;;18.50;74.00;;;;;;5009918;28;20034;-79
2022/10/21 09:14:48;;;;;;;4.90;1.52;;;18.60;73.30;;;;;;4997725;28;20061;-80
2022/10/21 09:17:55;;;;;;;13.32;2.10;;;18.60;72.40;;;;;;4992906;28;20038;-80
2022/10/21 09:20:56;;;;;;;13.55;2.35;;;18.60;72.00;;;;;;4996387;28;20057;-79
2022/10/21 09:23:51;;;;;;;11.70;1.48;;;18.70;71.60;;;;;;4985241;28;20509;-80
2022/10/21 09:26:34;;;;;;;18.05;2.17;;;18.80;70.80;;;;;;4980055;28;20031;-80
2022/10/21 09:29:29;;;;;;;11.00;2.20;;;18.70;71.10;;;;;;4996155;28;20100;-79
2022/10/21 09:32:08;;;;;;;11.07;1.95;;;18.60;70.80;;;;;;4978493;28;20038;-80
2022/10/21 09:34:43;;;;;;;5.88;1.75;;;18.60;71.10;;;;;;4997681;28;20080;-80
2022/10/21 09:37:29;;;;;;;19.15;2.47;;;18.60;71.30;;;;;;4997797;28;20081;-79
2022/10/21 09:40:17;;;;;;;13.95;1.90;;;18.60;71.60;;;;;;4994208;28;20026;-79
2022/10/21 09:42:43;;;;;;;7.97;2.15;;;18.80;71.20;;;;;;4997722;28;20026;-79
2022/10/21 09:45:40;;;;;;;16.50;2.17;;;19.00;70.80;;;;;;4997280;28;20060;-80
2022/10/21 09:48:18;;;;;;;21.17;2.55;;;19.10;71.10;;;;;;4994063;28;20041;-80
2022/10/21 09:50:58;;;;;;;10.20;2.00;;;19.20;70.80;;;;;;4993194;28;20042;-80
2022/10/21 09:53:23;;;;;;;;;;;19.20;70.10;;;;;;4991296;28;20019;-80
2022/10/21 09:55:55;;;;;;;6.18;1.63;;;19.30;70.20;;;;;;4994146;28;20281;-80
2022/10/21 09:58:45;;;;;;;10.63;2.30;;;19.40;69.70;;;;;;4996340;28;20117;-79
2022/10/21 10:01:17;;;;;;;11.23;2.05;;;19.50;69.80;;;;;;4996799;28;20043;-79
2022/10/21 10:03:45;;;;;;;12.27;2.50;;;19.60;69.80;;;;;;4996879;28;20026;-80
2022/10/21 10:06:11;;;;;;;9.65;2.05;;;19.70;68.50;;;;;;4994588;28;20030;-80
2022/10/21 10:08:46;;;;;;;13.52;1.85;;;19.60;68.70;;;;;;4996710;28;20034;-80
2022/10/21 10:11:21;;;;;;;11.32;2.05;;;19.60;68.60;;;;;;4988919;28;20041;-79
2022/10/21 10:13:50;;;;;;;8.30;2.05;;;19.60;68.50;;;;;;4988170;28;20055;-85
2022/10/21 10:16:27;;;;;;;8.35;1.17;;;19.60;68.90;;;;;;4991252;28;20034;-80
2022/10/21 10:19:15;;;;;;;11.57;2.38;;;19.70;68.40;;;;;;4996566;28;20169;-80
2022/10/21 10:21:41;;;;;;;11.52;1.98;;;19.70;68.40;;;;;;4997223;28;20505;-81
2022/10/21 10:24:16;;;;;;;16.73;2.40;;;19.70;68.80;;;;;;5016611;28;20026;-80
2022/10/21 10:26:42;;;;;;;13.20;1.92;;;19.80;68.20;;;;;;5013465;28;20026;-80
2022/10/21 10:29:28;;;;;;;19.75;2.50;;;19.80;68.60;;;;;;4984318;28;20489;-80
2022/10/21 10:31:56;;;;;;;9.40;2.33;;;19.90;68.10;;;;;;4993463;28;20050;-80
2022/10/21 10:34:33;;;;;;;8.38;1.55;;;19.90;66.40;;;;;;4995292;28;20031;-82
2022/10/21 10:37:16;;;;;;;8.90;1.55;;;19.90;66.40;;;;;;4991750;28;20026;-83
2022/10/21 10:39:46;;;;;;;6.30;0.95;;;19.90;65.50;;;;;;4982534;28;20053;-82
2022/10/21 10:42:30;;;;;;;8.45;1.17;;;19.80;65.00;;;;;;4976497;28;20026;-81
2022/10/21 10:45:11;;;;;;;11.88;1.63;;;19.80;65.30;;;;;;4988141;28;20026;-87
2022/10/21 10:47:42;;;;;;;9.65;1.90;;;19.80;65.20;;;;;;5016687;28;20472;-85
2022/10/21 10:50:36;;;;;;;12.93;1.85;;;19.80;64.70;;;;;;4997180;28;20505;-84
2022/10/21 10:53:36;;;;;;;5.97;1.75;;;19.90;64.70;;;;;;4990864;28;20398;-85
2022/10/21 10:56:25;;;;;;;13.77;1.63;;;20.00;64.20;;;;;;4986269;28;20038;-82
2022/10/21 10:59:29;;;;;;;8.02;1.33;;;20.10;64.10;;;;;;5003632;28;20044;-85
2022/10/21 11:02:12;;;;;;;10.35;2.63;;;20.30;63.90;;;;;;4994830;28;20034;-81
2022/10/21 11:05:12;;;;;;;8.35;1.13;;;20.40;62.50;;;;;;5011548;28;20033;-85
2022/10/21 11:07:49;;;;;;;10.02;1.73;;;20.30;61.20;;;;;;4994519;28;20034;-85
2022/10/21 11:10:45;;;;;;;8.15;1.25;;;20.30;61.40;;;;;;4996359;28;20035;-84
2022/10/21 11:13:16;;;;;;;12.10;1.58;;;20.20;62.10;;;;;;4996078;28;20417;-85
2022/10/21 11:16:10;;;;;;;10.05;2.03;;;20.30;61.80;;;;;;4996297;28;20042;-88
2022/10/21 11:19:14;;;;;;;7.22;1.35;;;20.30;61.60;;;;;;5011570;28;20022;-84
2022/10/21 11:21:47;;;;;;;8.95;2.13;;;20.30;60.50;;;;;;5010166;28;20036;-87
2022/10/21 11:24:33;;;;;;;10.27;1.90;;;20.30;60.20;;;;;;5001419;28;20034;-87
2022/10/21 11:27:06;;;;;;;5.97;1.35;;;20.30;60.10;;;;;;4993478;28;20026;-87
2022/10/21 11:29:54;;;;;;;9.07;1.52;;;20.40;58.80;;;;;;5008026;28;20055;-86
2022/10/21 11:32:34;;;;;;;6.95;1.25;;;20.50;58.00;;;;;;4981712;28;20050;-87
2022/10/21 11:35:00;;;;;;;;;;;20.50;58.60;;;;;;4999532;28;20062;-87
2022/10/21 11:37:53;;;;;;;5.82;1.10;;;20.60;59.30;;;;;;4987797;28;19914;-87
2022/10/21 11:40:21;;;;;;;7.82;1.13;;;20.50;58.00;;;;;;4986425;28;20551;-86
2022/10/21 11:42:50;;;;;;;5.95;1.25;;;20.50;59.00;;;;;;4984242;28;20492;-86
2022/10/21 11:45:21;;;;;;;10.50;1.83;;;20.40;58.70;;;;;;4987790;28;20019;-88
2022/10/21 11:47:59;;;;;;;7.47;1.48;;;20.50;59.50;;;;;;4989105;28;20073;-87
2022/10/21 11:50:44;;;;;;;4.75;1.35;;;20.50;59.50;;;;;;5010487;28;20037;-87
2022/10/21 11:53:13;;;;;;;7.13;1.50;;;20.50;58.60;;;;;;4989562;28;20485;-86
2022/10/21 11:56:00;;;;;;;10.20;1.13;;;20.50;59.90;;;;;;4989299;28;20022;-86
2022/10/21 11:58:44;;;;;;;3.03;1.05;;;20.60;59.00;;;;;;4989542;28;20037;-88
2022/10/21 12:01:15;;;;;;;7.72;1.42;;;20.60;58.40;;;;;;4990246;28;20030;-87
2022/10/21 12:04:16;;;;;;;7.25;1.35;;;20.50;58.60;;;;;;4990801;28;20026;-88
2022/10/21 12:06:51;;;;;;;6.72;0.95;;;20.60;57.70;;;;;;4987185;28;20023;-88
2022/10/21 12:09:28;;;;;;;9.95;1.20;;;20.60;57.50;;;;;;4988822;28;20112;-87
2022/10/21 12:12:01;;;;;;;10.50;1.30;;;20.80;56.80;;;;;;4981645;28;20035;-86
2022/10/21 12:14:35;;;;;;;8.05;1.38;;;20.80;56.10;;;;;;4978661;28;20109;-82
2022/10/21 12:17:12;;;;;;;4.72;1.33;;;20.80;56.40;;;;;;4981790;28;20058;-89
2022/10/21 12:19:38;;;;;;;5.85;1.35;;;20.90;56.70;;;;;;4970782;28;20034;-87
2022/10/21 12:22:04;;;;;;;6.13;0.95;;;20.80;55.70;;;;;;4997477;28;20026;-87
2022/10/21 12:24:38;;;;;;;9.50;1.52;;;20.80;56.30;;;;;;4993462;28;20596;-88
2022/10/21 12:27:19;;;;;;;8.45;1.20;;;20.90;55.60;;;;;;5000296;28;20101;-88
2022/10/21 12:30:04;;;;;;;7.20;0.88;;;21.00;55.30;;;;;;4999512;28;20031;-88
2022/10/21 12:32:42;;;;;;;9.60;1.08;;;21.10;55.40;;;;;;5010038;28;20084;-87
2022/10/21 12:35:15;;;;;;;6.22;1.65;;;21.00;55.30;;;;;;4978646;28;20109;-80
2022/10/21 12:37:45;;;;;;;8.10;1.42;;;20.90;55.20;;;;;;4979521;28;20027;-87
2022/10/21 12:40:11;;;;;;;5.32;1.30;;;20.80;55.50;;;;;;4992343;28;20030;-88
2022/10/21 12:42:46;;;;;;;6.85;1.30;;;20.80;55.60;;;;;;4999047;28;20483;-87
2022/10/21 12:45:27;;;;;;;22.02;2.45;;;20.80;55.70;;;;;;4998173;28;20030;-86
2022/10/21 12:47:53;;;;;;;8.00;1.02;;;20.90;56.30;;;;;;4998526;28;20085;-87
2022/10/21 12:50:28;;;;;;;8.63;1.42;;;21.00;56.60;;;;;;4999160;28;20026;-86
2022/10/21 12:53:03;;;;;;;3.08;0.50;;;21.00;55.10;;;;;;5013990;28;20023;-86
2022/10/21 12:55:38;;;;;;;8.98;1.52;;;21.00;54.40;;;;;;5014005;28;20027;-87
2022/10/21 12:58:05;;;;;;;7.30;1.50;;;21.00;54.30;;;;;;4981303;28;20033;-87
2022/10/21 13:00:31;;;;;;;4.82;1.02;;;21.10;54.50;;;;;;4979478;28;20038;-87
2022/10/21 13:03:03;;;;;;;4.88;1.05;;;21.10;55.20;;;;;;5003358;28;20393;-86
2022/10/21 13:05:37;;;;;;;12.65;2.38;;;21.20;55.80;;;;;;4999101;28;20510;-87
2022/10/21 13:08:23;;;;;;;4.65;1.00;;;21.40;56.00;;;;;;4998375;28;20026;-86